Time;durP1;ratioP1;P1;durP2;ratioP2;P2;SDS_P1;SDS_P2;PMS_P1;PMS_P2;Temp;Humidity;BMP_temperature;BMP_pressure;BME280_temperature;BME280_humidity;BME280_pressure;Samples;Min_cycle;Max_cycle;Signal;HPM_P1;HPM_P2
2024/04/09 00:00:18;;;;;;;23.73;4.50;;;20.90;86.50;;;;;;5415979;26;20603;-61
2024/04/09 00:02:47;;;;;;;32.85;5.30;;;20.90;86.60;;;;;;5416845;26;20680;-62
2024/04/09 00:05:13;;;;;;;19.15;4.45;;;20.90;86.30;;;;;;5416484;26;20655;-62
2024/04/09 00:07:43;;;;;;;24.08;5.28;;;20.90;86.10;;;;;;5416695;26;20223;-61
2024/04/09 00:10:09;;;;;;;23.42;4.97;;;20.90;86.00;;;;;;5416470;26;20819;-64
2024/04/09 00:12:38;;;;;;;20.25;5.18;;;20.90;86.00;;;;;;5416462;26;20231;-64
2024/04/09 00:15:07;;;;;;;26.90;5.63;;;21.00;86.10;;;;;;5416377;26;20246;-64
2024/04/09 00:17:44;;;;;;;23.73;4.22;;;21.00;86.10;;;;;;5416367;26;20620;-64
2024/04/09 00:20:11;;;;;;;23.00;4.78;;;21.00;85.90;;;;;;5415999;26;20670;-64
2024/04/09 00:22:39;;;;;;;21.00;4.60;;;21.00;86.10;;;;;;5416351;26;20604;-62
2024/04/09 00:25:05;;;;;;;19.75;5.00;;;21.00;86.10;;;;;;5416396;26;20218;-64
2024/04/09 00:27:33;;;;;;;21.20;4.68;;;21.00;86.30;;;;;;5416294;26;20228;-64
2024/04/09 00:29:59;;;;;;;24.15;4.97;;;20.90;86.90;;;;;;5415769;26;20273;-64
2024/04/09 00:32:27;;;;;;;23.30;5.57;;;20.80;87.30;;;;;;5416288;26;20697;-63
2024/04/09 00:34:56;;;;;;;20.77;4.93;;;20.70;87.60;;;;;;5416140;26;20219;-63
2024/04/09 00:37:24;;;;;;;19.65;4.78;;;20.60;88.30;;;;;;5416191;26;20296;-63
2024/04/09 00:39:50;;;;;;;24.30;4.57;;;20.50;88.90;;;;;;5415783;26;20484;-65
2024/04/09 00:42:18;;;;;;;31.75;5.05;;;20.50;88.60;;;;;;5416259;26;20227;-65
2024/04/09 00:44:44;;;;;;;25.33;4.78;;;20.40;88.70;;;;;;5416238;26;20234;-65
2024/04/09 00:47:16;;;;;;;27.92;4.82;;;20.30;89.50;;;;;;5416310;26;20227;-64
2024/04/09 00:49:42;;;;;;;22.10;5.22;;;20.20;89.90;;;;;;5415928;26;20251;-65
2024/04/09 00:52:14;;;;;;;23.55;4.80;;;20.20;90.50;;;;;;5416200;26;20231;-65
2024/04/09 00:54:44;;;;;;;29.75;5.15;;;20.10;91.50;;;;;;5416021;26;20258;-65
2024/04/09 00:57:14;;;;;;;32.50;4.95;;;20.00;91.70;;;;;;5415992;26;20258;-62
2024/04/09 00:59:41;;;;;;;26.23;4.80;;;19.90;92.00;;;;;;5415135;26;20261;-63
2024/04/09 01:02:09;;;;;;;24.92;4.93;;;19.80;92.10;;;;;;5414433;26;20227;-63
2024/04/09 01:04:35;;;;;;;21.92;5.00;;;19.70;92.10;;;;;;5415903;26;20248;-65
2024/04/09 01:07:04;;;;;;;22.30;4.43;;;19.70;92.20;;;;;;5416197;26;20222;-65
2024/04/09 01:09:32;;;;;;;20.08;4.78;;;19.70;92.40;;;;;;5415458;26;20230;-62
2024/04/09 01:12:00;;;;;;;19.73;4.32;;;19.70;92.60;;;;;;5415717;26;20599;-63
2024/04/09 01:14:26;;;;;;;16.20;4.40;;;19.60;92.70;;;;;;5415841;26;20588;-66
2024/04/09 01:16:54;;;;;;;21.02;4.90;;;19.60;92.70;;;;;;5416231;26;20222;-62
2024/04/09 01:19:20;;;;;;;30.33;5.10;;;19.60;92.70;;;;;;5415247;26;20564;-63
2024/04/09 01:21:48;;;;;;;23.40;4.43;;;19.60;92.70;;;;;;5415660;26;20815;-62
2024/04/09 01:24:17;;;;;;;20.48;5.25;;;19.60;92.80;;;;;;5415838;26;20732;-63
2024/04/09 01:26:45;;;;;;;20.60;4.85;;;19.70;93.10;;;;;;5415809;26;20249;-63
2024/04/09 01:29:11;;;;;;;25.58;5.75;;;19.60;93.40;;;;;;5415211;26;20231;-63
2024/04/09 01:31:40;;;;;;;29.67;4.88;;;19.50;93.40;;;;;;5415787;26;20227;-63
2024/04/09 01:34:09;;;;;;;26.30;5.88;;;19.40;94.20;;;;;;5415519;26;20275;-64
2024/04/09 01:36:38;;;;;;;22.55;4.65;;;19.20;94.10;;;;;;5415560;26;20316;-63
2024/04/09 01:39:08;;;;;;;28.77;5.10;;;19.10;94.50;;;;;;5415167;26;20302;-64
2024/04/09 01:41:39;;;;;;;28.00;4.78;;;19.00;94.80;;;;;;5415307;26;20223;-63
2024/04/09 01:44:06;;;;;;;18.50;5.10;;;18.80;95.00;;;;;;5415540;26;20345;-63
2024/04/09 01:46:35;;;;;;;25.83;5.20;;;18.80;95.30;;;;;;5415355;26;20222;-63
2024/04/09 01:49:00;;;;;;;20.83;4.82;;;18.70;95.30;;;;;;5414754;26;20235;-63
2024/04/09 01:51:29;;;;;;;17.48;4.68;;;18.70;95.30;;;;;;5415104;26;20222;-62
2024/04/09 01:53:54;;;;;;;22.90;4.57;;;18.60;95.50;;;;;;5415333;26;20219;-63
2024/04/09 01:56:23;;;;;;;15.75;3.75;;;18.60;95.80;;;;;;5415074;26;20589;-63
2024/04/09 01:58:52;;;;;;;17.73;4.00;;;18.50;95.80;;;;;;5414561;26;20269;-63
2024/04/09 02:01:21;;;;;;;18.27;3.95;;;18.50;95.90;;;;;;5415122;26;20230;-65
2024/04/09 02:03:49;;;;;;;20.23;4.03;;;18.50;95.90;;;;;;5415138;26;20257;-62
2024/04/09 02:06:20;;;;;;;22.55;4.28;;;18.50;95.80;;;;;;5414861;26;20313;-64
2024/04/09 02:08:46;;;;;;;20.52;4.45;;;18.50;95.80;;;;;;5414304;26;20235;-64
2024/04/09 02:11:15;;;;;;;19.15;4.28;;;18.50;96.00;;;;;;5414866;26;20219;-63
2024/04/09 02:13:41;;;;;;;18.25;5.07;;;18.50;96.00;;;;;;5418264;26;20219;-63
2024/04/09 02:16:12;;;;;;;26.00;4.57;;;18.50;96.00;;;;;;5418398;26;20262;-62
2024/04/09 02:18:38;;;;;;;23.27;5.07;;;18.60;96.10;;;;;;5417870;26;20692;-63
2024/04/09 02:21:09;;;;;;;21.45;4.35;;;18.50;96.10;;;;;;5418274;26;20257;-63
2024/04/09 02:23:35;;;;;;;18.35;3.95;;;18.50;95.80;;;;;;5418427;26;20490;-63
2024/04/09 02:26:03;;;;;;;19.85;4.40;;;18.60;95.60;;;;;;5418255;26;20226;-63
2024/04/09 02:28:29;;;;;;;17.70;4.28;;;18.50;95.40;;;;;;5417926;26;20235;-64
2024/04/09 02:30:58;;;;;;;26.50;4.55;;;18.50;96.00;;;;;;5418144;26;20727;-64
2024/04/09 02:33:27;;;;;;;23.02;4.68;;;18.40;95.90;;;;;;5418236;26;20227;-63
2024/04/09 02:35:57;;;;;;;15.35;4.15;;;18.20;96.40;;;;;;5417981;26;20304;-64
2024/04/09 02:38:24;;;;;;;15.85;4.93;;;18.10;96.00;;;;;;5417666;26;20268;-64
2024/04/09 02:40:52;;;;;;;18.15;3.60;;;18.00;95.70;;;;;;5417989;26;20223;-63
2024/04/09 02:43:19;;;;;;;16.50;3.95;;;18.10;95.50;;;;;;5418771;26;20222;-64
2024/04/09 02:45:48;;;;;;;16.42;4.05;;;18.20;95.40;;;;;;5417895;26;20296;-65
2024/04/09 02:48:15;;;;;;;21.15;3.90;;;18.20;94.80;;;;;;5417556;26;20561;-64
2024/04/09 02:50:46;;;;;;;18.10;3.83;;;18.30;94.40;;;;;;5417961;26;20235;-63
2024/04/09 02:53:12;;;;;;;22.98;4.13;;;18.20;94.20;;;;;;5417826;26;20215;-62
2024/04/09 02:55:41;;;;;;;17.48;3.55;;;18.20;94.10;;;;;;5417806;26;20269;-62
2024/04/09 02:58:06;;;;;;;15.10;3.60;;;18.20;94.10;;;;;;5417640;26;20257;-65
2024/04/09 03:00:36;;;;;;;13.05;3.63;;;18.20;94.10;;;;;;5417381;26;20223;-65
2024/04/09 03:03:02;;;;;;;18.38;3.47;;;18.00;93.90;;;;;;5417865;26;20275;-64
2024/04/09 03:05:32;;;;;;;26.00;3.67;;;18.00;93.50;;;;;;5417893;26;20227;-64
2024/04/09 03:08:02;;;;;;;13.82;3.45;;;17.90;93.10;;;;;;5417825;26;20271;-64
2024/04/09 03:10:36;;;;;;;17.40;3.97;;;17.80;92.60;;;;;;5417264;26;20234;-64
2024/04/09 03:13:02;;;;;;;17.20;3.30;;;16.20;91.50;;;;;;5417664;26;20253;-64
2024/04/09 03:15:32;;;;;;;14.75;3.58;;;17.80;92.30;;;;;;5417840;26;20226;-64
2024/04/09 03:17:58;;;;;;;17.70;3.45;;;17.80;92.30;;;;;;5417820;26;20701;-64
2024/04/09 03:20:28;;;;;;;16.05;3.30;;;17.70;92.20;;;;;;5417373;26;20226;-66
2024/04/09 03:22:54;;;;;;;19.13;3.80;;;17.60;92.30;;;;;;5418088;26;20223;-63
2024/04/09 03:25:29;;;;;;;19.58;3.30;;;17.60;92.20;;;;;;5416919;26;20234;-64
2024/04/09 03:28:01;;;;;;;15.70;3.78;;;17.60;92.30;;;;;;5418382;26;20257;-65
2024/04/09 03:30:27;;;;;;;13.73;3.30;;;17.60;92.40;;;;;;5418106;26;20223;-63
2024/04/09 03:32:55;;;;;;;12.60;2.88;;;17.70;92.50;;;;;;5417579;26;20327;-63
2024/04/09 03:35:21;;;;;;;16.00;3.55;;;17.70;92.50;;;;;;5417577;26;20219;-64
2024/04/09 03:37:49;;;;;;;12.60;3.22;;;17.70;92.50;;;;;;5417454;26;20775;-64
2024/04/09 03:40:18;;;;;;;18.23;3.70;;;17.60;92.80;;;;;;5418003;26;20558;-65
2024/04/09 03:42:47;;;;;;;12.30;3.20;;;17.60;93.90;;;;;;5417775;26;20323;-65
2024/04/09 03:45:16;;;;;;;15.35;3.75;;;17.50;94.50;;;;;;5417279;26;20227;-64
2024/04/09 03:47:42;;;;;;;22.85;4.20;;;17.50;94.50;;;;;;5417302;26;20221;-64
2024/04/09 03:50:10;;;;;;;19.63;4.18;;;17.50;94.50;;;;;;5416404;26;20235;-63
2024/04/09 03:52:36;;;;;;;19.38;3.70;;;17.40;94.60;;;;;;5417297;26;20257;-63
2024/04/09 03:55:04;;;;;;;20.23;4.18;;;17.50;94.70;;;;;;5416970;26;20218;-63
2024/04/09 03:57:30;;;;;;;20.02;3.78;;;17.50;94.70;;;;;;5416986;26;20218;-62
2024/04/09 04:00:01;;;;;;;16.60;3.25;;;17.50;94.90;;;;;;5416280;26;20289;-64
2024/04/09 04:02:27;;;;;;;20.67;3.63;;;17.50;95.00;;;;;;5416958;26;20219;-64
2024/04/09 04:04:56;;;;;;;12.77;3.83;;;17.50;94.90;;;;;;5416815;26;20287;-64
2024/04/09 04:07:22;;;;;;;16.00;4.43;;;17.50;94.80;;;;;;5417147;26;20563;-64
2024/04/09 04:09:50;;;;;;;17.25;4.05;;;17.50;94.90;;;;;;5416434;26;20261;-64
2024/04/09 04:12:16;;;;;;;21.55;4.10;;;17.50;94.90;;;;;;5416753;26;20253;-64
2024/04/09 04:14:44;;;;;;;21.00;4.07;;;17.50;94.70;;;;;;5416612;26;20223;-62
2024/04/09 04:17:12;;;;;;;20.55;4.40;;;17.60;94.80;;;;;;5416633;26;20218;-64
2024/04/09 04:19:41;;;;;;;14.10;3.58;;;17.60;94.70;;;;;;5416644;26;20234;-63
2024/04/09 04:22:07;;;;;;;16.10;3.67;;;17.60;94.60;;;;;;5416459;26;20295;-65
2024/04/09 04:24:35;;;;;;;21.67;3.97;;;17.50;94.50;;;;;;5416524;26;20649;-63
2024/04/09 04:27:04;;;;;;;24.40;4.07;;;17.50;94.30;;;;;;5416488;26;20223;-65
2024/04/09 04:29:32;;;;;;;17.38;4.00;;;17.50;94.30;;;;;;5416063;26;20247;-64
2024/04/09 04:31:58;;;;;;;23.50;4.80;;;17.40;94.40;;;;;;5416528;26;20214;-64
2024/04/09 04:34:29;;;;;;;13.50;4.30;;;17.40;94.60;;;;;;5416772;26;20219;-63
2024/04/09 04:36:54;;;;;;;21.80;4.35;;;17.30;94.80;;;;;;5416522;26;20237;-64
2024/04/09 04:39:23;;;;;;;16.33;4.85;;;17.20;95.00;;;;;;5415857;26;20238;-65
2024/04/09 04:41:48;;;;;;;20.40;4.97;;;17.10;95.20;;;;;;5416353;26;20743;-62
2024/04/09 04:44:17;;;;;;;17.55;4.88;;;17.10;95.40;;;;;;5416246;26;20219;-63
2024/04/09 04:46:43;;;;;;;19.02;5.03;;;17.00;95.60;;;;;;5416433;26;20672;-63
2024/04/09 04:49:11;;;;;;;21.23;4.70;;;17.00;95.60;;;;;;5415404;26;20326;-63
2024/04/09 04:51:39;;;;;;;16.00;4.53;;;16.90;95.70;;;;;;5415947;26;20223;-63
2024/04/09 04:54:07;;;;;;;16.92;4.75;;;17.00;95.90;;;;;;5416680;26;20222;-64
2024/04/09 04:56:34;;;;;;;20.13;4.68;;;17.00;95.80;;;;;;5416296;26;20288;-64
2024/04/09 04:59:02;;;;;;;17.13;5.32;;;17.00;95.70;;;;;;5415144;26;20247;-63
2024/04/09 05:01:29;;;;;;;36.30;8.65;;;17.10;95.60;;;;;;5415914;26;20328;-64
2024/04/09 05:03:58;;;;;;;24.90;5.03;;;17.20;95.70;;;;;;5415546;26;20320;-64
2024/04/09 05:06:23;;;;;;;24.08;4.35;;;17.30;95.80;;;;;;5415716;26;20219;-64
2024/04/09 05:08:54;;;;;;;19.80;4.22;;;17.40;95.70;;;;;;5415474;26;20238;-63
2024/04/09 05:11:22;;;;;;;22.38;4.72;;;17.50;95.70;;;;;;5416045;26;20249;-63
2024/04/09 05:13:52;;;;;;;18.85;4.40;;;17.60;96.20;;;;;;5415611;26;21071;-64
2024/04/09 05:16:18;;;;;;;19.65;4.38;;;17.60;95.90;;;;;;5415784;26;20223;-64
2024/04/09 05:18:46;;;;;;;19.98;3.90;;;17.60;95.90;;;;;;5415112;26;20281;-64
2024/04/09 05:21:12;;;;;;;22.52;4.20;;;17.70;96.00;;;;;;5415235;26;20280;-64
2024/04/09 05:23:41;;;;;;;18.10;4.80;;;17.70;96.10;;;;;;5415678;26;20620;-64
2024/04/09 05:26:09;;;;;;;15.90;4.13;;;17.70;96.20;;;;;;5415792;26;20516;-63
2024/04/09 05:28:37;;;;;;;16.92;3.40;;;17.70;96.10;;;;;;5415350;26;20235;-64
2024/04/09 05:31:03;;;;;;;21.02;3.92;;;17.80;96.10;;;;;;5415677;26;20261;-63
2024/04/09 05:33:31;;;;;;;18.85;3.70;;;17.90;96.20;;;;;;5415473;26;20231;-63
2024/04/09 05:35:57;;;;;;;18.58;4.35;;;18.10;96.20;;;;;;5415750;26;20602;-64
2024/04/09 05:38:26;;;;;;;13.20;3.38;;;18.30;96.10;;;;;;5415026;26;20238;-64
2024/04/09 05:40:55;;;;;;;11.68;3.40;;;18.40;95.90;;;;;;5415450;26;20219;-64
2024/04/09 05:43:26;;;;;;;13.80;2.92;;;18.60;95.80;;;;;;5415343;26;20262;-64
2024/04/09 05:45:52;;;;;;;21.45;3.92;;;18.80;95.60;;;;;;5415233;26;20226;-63
2024/04/09 05:48:20;;;;;;;9.23;2.90;;;19.00;95.50;;;;;;5414325;26;20341;-64
2024/04/09 05:50:46;;;;;;;15.60;3.15;;;19.20;95.30;;;;;;5414759;26;20219;-63
2024/04/09 05:53:14;;;;;;;13.98;2.80;;;19.60;95.10;;;;;;5415002;26;20323;-64
2024/04/09 05:55:40;;;;;;;11.77;2.90;;;19.90;94.70;;;;;;5415049;26;20235;-64
2024/04/09 05:58:09;;;;;;;12.25;2.67;;;20.10;94.50;;;;;;5414507;26;20222;-63
2024/04/09 06:00:39;;;;;;;11.88;2.53;;;20.30;94.10;;;;;;5414726;26;20245;-64
2024/04/09 06:03:07;;;;;;;10.77;2.67;;;20.40;94.30;;;;;;5414336;26;20253;-64
2024/04/09 06:05:33;;;;;;;12.45;2.35;;;20.50;94.30;;;;;;5414694;26;20218;-64
2024/04/09 06:08:02;;;;;;;11.57;2.03;;;20.60;94.00;;;;;;5414744;26;20277;-61
2024/04/09 06:10:27;;;;;;;9.02;2.20;;;20.70;94.10;;;;;;5422297;21;20272;-56
2024/04/09 06:12:56;;;;;;;7.18;2.08;;;20.60;94.60;;;;;;5394594;26;20240;-57
2024/04/09 06:15:22;;;;;;;8.43;2.13;;;20.70;94.40;;;;;;5400152;26;20261;-59
2024/04/09 06:17:53;;;;;;;7.63;2.45;;;20.90;94.30;;;;;;5400042;26;20235;-57
2024/04/09 06:20:19;;;;;;;9.80;2.22;;;21.10;94.30;;;;;;5358221;26;20683;-56
2024/04/09 06:22:48;;;;;;;5.63;1.50;;;21.00;94.20;;;;;;5359089;26;20271;-57
2024/04/09 06:25:14;;;;;;;7.05;2.10;;;20.80;94.50;;;;;;5364478;26;20236;-57
2024/04/09 06:27:43;;;;;;;5.28;2.13;;;20.80;94.60;;;;;;5364760;26;20614;-56
2024/04/09 06:30:09;;;;;;;11.25;1.90;;;20.80;94.60;;;;;;5360043;26;20235;-57
2024/04/09 06:32:38;;;;;;;12.00;2.00;;;20.70;94.70;;;;;;5358886;26;20237;-57
2024/04/09 06:35:08;;;;;;;5.50;2.25;;;20.50;95.10;;;;;;5362221;26;20233;-55
2024/04/09 06:37:37;;;;;;;7.32;1.80;;;20.40;95.60;;;;;;5364616;26;20244;-59
2024/04/09 06:40:05;;;;;;;8.23;2.17;;;20.40;95.80;;;;;;5361203;26;20240;-55
2024/04/09 06:42:33;;;;;;;5.97;1.88;;;20.60;95.90;;;;;;5358944;26;20294;-55
2024/04/09 06:45:01;;;;;;;7.55;1.77;;;20.70;95.80;;;;;;5360786;26;20237;-56
2024/04/09 06:47:29;;;;;;;10.00;1.77;;;20.80;95.90;;;;;;5364512;26;20235;-55
2024/04/09 06:49:56;;;;;;;6.38;1.73;;;20.70;96.00;;;;;;5362117;26;20236;-56
2024/04/09 06:52:28;;;;;;;4.07;1.20;;;20.70;96.30;;;;;;5358168;26;20275;-56
2024/04/09 06:54:54;;;;;;;5.90;1.73;;;20.90;96.20;;;;;;5358604;26;20237;-57
2024/04/09 06:57:22;;;;;;;5.38;2.00;;;21.10;96.10;;;;;;5364319;26;20349;-57
2024/04/09 06:59:48;;;;;;;6.47;1.70;;;21.30;96.10;;;;;;5365349;26;20645;-56
2024/04/09 07:02:16;;;;;;;5.40;1.58;;;21.60;95.50;;;;;;5362063;26;20241;-55
2024/04/09 07:04:43;;;;;;;8.35;2.00;;;22.10;95.20;;;;;;5359296;26;20236;-55
2024/04/09 07:07:11;;;;;;;4.38;1.30;;;22.50;94.80;;;;;;5363480;26;20239;-57
2024/04/09 07:09:39;;;;;;;5.63;1.73;;;23.00;94.50;;;;;;5360957;26;20245;-57
2024/04/09 07:12:09;;;;;;;4.90;1.40;;;23.40;93.70;;;;;;5364610;26;20656;-56
2024/04/09 07:14:34;;;;;;;4.03;1.50;;;23.70;93.70;;;;;;5367507;26;20231;-57
2024/04/09 07:17:03;;;;;;;7.60;1.73;;;24.00;93.30;;;;;;5365268;26;20304;-56
2024/04/09 07:19:28;;;;;;;8.27;2.10;;;24.30;93.20;;;;;;5361258;26;20284;-57
2024/04/09 07:21:57;;;;;;;6.28;1.90;;;24.50;92.80;;;;;;5361881;26;20280;-56
2024/04/09 07:24:23;;;;;;;8.00;3.10;;;24.90;92.60;;;;;;5367818;26;20323;-57
2024/04/09 07:26:54;;;;;;;6.75;1.90;;;25.40;92.00;;;;;;5367233;26;20232;-57
2024/04/09 07:29:20;;;;;;;7.53;1.98;;;26.00;91.50;;;;;;5347300;26;20237;-56
2024/04/09 07:31:48;;;;;;;5.57;1.50;;;26.30;90.80;;;;;;5361126;26;20279;-57
2024/04/09 07:34:14;;;;;;;6.30;1.60;;;26.40;90.20;;;;;;5366333;26;20235;-57
2024/04/09 07:36:42;;;;;;;9.60;1.80;;;26.40;90.50;;;;;;5367165;26;20337;-57
2024/04/09 07:39:08;;;;;;;6.38;1.67;;;26.60;90.30;;;;;;5362936;26;20767;-56
2024/04/09 07:41:37;;;;;;;5.38;1.60;;;26.60;90.10;;;;;;5361409;26;20276;-64
2024/04/09 07:44:05;;;;;;;5.72;1.60;;;26.60;90.20;;;;;;5363244;26;20237;-57
2024/04/09 07:46:33;;;;;;;6.38;2.13;;;26.60;90.30;;;;;;5366709;26;20827;-56
2024/04/09 07:49:00;;;;;;;9.68;1.80;;;27.30;89.70;;;;;;5364780;26;20237;-57
2024/04/09 07:51:28;;;;;;;5.65;1.58;;;27.20;89.10;;;;;;5360838;26;20761;-57
2024/04/09 07:53:54;;;;;;;5.03;1.55;;;26.50;90.20;;;;;;5360886;26;20769;-57
2024/04/09 07:56:22;;;;;;;6.43;1.63;;;26.40;90.40;;;;;;5366753;26;20236;-56
2024/04/09 07:58:48;;;;;;;5.05;1.35;;;26.30;91.00;;;;;;5366559;26;20236;-56
2024/04/09 08:01:19;;;;;;;11.40;2.03;;;26.20;90.80;;;;;;5361827;26;20280;-56
2024/04/09 08:03:45;;;;;;;6.63;1.15;;;25.40;91.50;;;;;;5358715;26;20232;-55
2024/04/09 08:06:13;;;;;;;8.63;1.48;;;24.20;92.00;;;;;;5362842;26;20275;-56
2024/04/09 08:08:39;;;;;;;6.20;1.00;;;23.10;92.70;;;;;;5360389;26;20732;-56
2024/04/09 08:11:10;;;;;;;5.50;0.88;;;22.00;93.20;;;;;;5362893;26;20237;-55
2024/04/09 08:13:35;;;;;;;3.65;0.80;;;21.00;93.50;;;;;;5366593;26;20232;-56
2024/04/09 08:16:04;;;;;;;5.72;1.00;;;19.90;94.00;;;;;;5365269;26;20344;-56
2024/04/09 08:18:32;;;;;;;3.60;0.70;;;19.30;94.70;;;;;;5360285;26;20271;-56
2024/04/09 08:21:01;;;;;;;3.97;0.73;;;18.70;95.30;;;;;;5361547;26;20632;-56
2024/04/09 08:23:27;;;;;;;3.33;0.60;;;18.30;96.00;;;;;;5366444;26;20228;-56
2024/04/09 08:25:55;;;;;;;3.33;0.68;;;18.20;96.10;;;;;;5366141;26;20279;-55
2024/04/09 08:28:21;;;;;;;6.10;0.50;;;18.10;94.80;;;;;;5346339;26;20275;-56
2024/04/09 08:30:52;;;;;;;11.23;1.15;;;17.90;94.70;;;;;;5360888;26;20241;-56
2024/04/09 08:33:17;;;;;;;6.90;1.05;;;17.60;94.60;;;;;;5365920;26;20228;-55
2024/04/09 08:35:50;;;;;;;4.72;0.45;;;17.30;94.90;;;;;;5366606;26;20585;-55
2024/04/09 08:38:17;;;;;;;4.55;0.40;;;17.10;95.40;;;;;;5366337;26;20236;-56
2024/04/09 08:40:45;;;;;;;4.10;0.30;;;17.10;94.90;;;;;;5366445;26;20262;-56
2024/04/09 08:43:15;;;;;;;4.03;0.50;;;17.00;94.20;;;;;;5366583;26;20236;-56
2024/04/09 08:45:45;;;;;;;9.18;0.98;;;17.00;93.80;;;;;;5366403;26;20240;-57
2024/04/09 08:48:13;;;;;;;7.88;0.70;;;16.90;93.70;;;;;;5361991;26;20335;-56
2024/04/09 08:50:44;;;;;;;3.05;0.43;;;16.70;93.60;;;;;;5360031;26;20241;-57
2024/04/09 08:53:13;;;;;;;3.15;0.45;;;16.60;93.90;;;;;;5364086;26;20268;-57
2024/04/09 08:55:42;;;;;;;1.25;0.30;;;16.50;94.00;;;;;;5366433;26;20236;-57
2024/04/09 08:58:11;;;;;;;3.53;0.73;;;16.40;94.10;;;;;;5362852;26;20755;-56
2024/04/09 09:00:40;;;;;;;3.97;0.85;;;16.40;94.30;;;;;;5359647;26;20291;-56
2024/04/09 09:03:05;;;;;;;2.05;0.63;;;16.20;94.60;;;;;;5362542;26;20268;-56
2024/04/09 09:05:34;;;;;;;1.42;0.43;;;16.10;94.30;;;;;;5371909;26;20233;-57
2024/04/09 09:08:00;;;;;;;2.55;0.28;;;15.90;94.20;;;;;;5361087;26;20275;-57
2024/04/09 09:10:31;;;;;;;4.40;0.82;;;15.80;94.50;;;;;;5365715;26;20252;-56
2024/04/09 09:12:58;;;;;;;5.75;0.70;;;15.60;94.70;;;;;;5365462;26;20266;-58
2024/04/09 09:15:26;;;;;;;2.08;0.40;;;15.60;94.90;;;;;;5359864;26;20236;-55
2024/04/09 09:17:52;;;;;;;2.80;0.60;;;15.60;94.90;;;;;;5360328;26;20719;-57
2024/04/09 09:20:22;;;;;;;5.68;0.55;;;15.40;95.00;;;;;;5364926;26;20236;-57
2024/04/09 09:22:48;;;;;;;1.23;0.30;;;15.40;95.30;;;;;;5364972;26;20236;-56
2024/04/09 09:25:18;;;;;;;2.33;0.65;;;15.40;95.10;;;;;;5361616;26;20282;-57
2024/04/09 09:27:48;;;;;;;2.95;0.40;;;15.30;94.90;;;;;;5359938;26;20275;-57
2024/04/09 09:30:17;;;;;;;1.80;0.60;;;15.30;94.70;;;;;;5364105;26;20279;-58
2024/04/09 09:32:47;;;;;;;2.63;0.47;;;15.30;94.60;;;;;;5366104;26;20676;-58
2024/04/09 09:35:18;;;;;;;4.83;0.60;;;15.30;94.80;;;;;;5361792;26;20240;-56
2024/04/09 09:37:46;;;;;;;2.50;0.80;;;15.30;94.90;;;;;;5359861;26;20345;-57
2024/04/09 09:40:15;;;;;;;2.97;0.60;;;15.30;94.80;;;;;;5363074;26;20244;-56
2024/04/09 09:42:43;;;;;;;2.97;0.60;;;15.10;95.10;;;;;;5366031;26;20267;-57
2024/04/09 09:45:15;;;;;;;1.00;0.50;;;15.20;95.30;;;;;;5362951;26;20282;-57
2024/04/09 09:47:41;;;;;;;4.40;0.77;;;15.30;95.40;;;;;;5359919;26;20229;-56
2024/04/09 09:50:11;;;;;;;6.20;1.10;;;15.30;94.80;;;;;;5361959;26;20291;-57
2024/04/09 09:52:42;;;;;;;4.50;0.98;;;15.30;94.70;;;;;;5365378;26;20232;-56
2024/04/09 09:55:11;;;;;;;1.53;0.57;;;15.30;94.40;;;;;;5362775;26;20232;-59
2024/04/09 09:57:41;;;;;;;1.27;0.40;;;15.30;94.40;;;;;;5359660;26;20267;-56
2024/04/09 10:00:15;;;;;;;5.07;1.97;;;15.10;94.60;;;;;;5361376;26;20241;-55
2024/04/09 10:02:44;;;;;;;3.60;0.60;;;15.10;94.10;;;;;;5365117;26;20232;-56
2024/04/09 10:05:14;;;;;;;3.25;0.80;;;15.10;94.00;;;;;;5362060;26;20575;-56
2024/04/09 10:07:40;;;;;;;5.97;3.10;;;15.00;93.90;;;;;;5359459;26;20334;-57
2024/04/09 10:10:09;;;;;;;3.20;1.00;;;15.00;94.00;;;;;;5360761;26;20288;-58
2024/04/09 10:12:36;;;;;;;3.03;1.10;;;15.00;94.20;;;;;;5364972;26;20285;-57
2024/04/09 10:15:05;;;;;;;1.90;1.10;;;15.20;94.10;;;;;;5363679;26;20658;-56
2024/04/09 10:17:50;;;;;;;2.40;0.93;;;15.10;93.90;;;;;;5359280;26;20275;-57
2024/04/09 10:20:20;;;;;;;3.20;0.77;;;15.10;94.00;;;;;;5358765;26;20584;-56
2024/04/09 10:22:46;;;;;;;1.17;0.60;;;15.00;93.90;;;;;;5371067;26;20274;-55
2024/04/09 10:25:19;;;;;;;2.83;0.73;;;15.00;94.20;;;;;;5361530;26;20337;-57
2024/04/09 10:27:45;;;;;;;2.57;0.60;;;15.10;94.10;;;;;;5359081;26;20590;-56
2024/04/09 10:30:18;;;;;;;4.00;0.60;;;15.30;94.00;;;;;;5361319;26;20287;-57
2024/04/09 10:32:59;;;;;;;4.70;0.90;;;15.50;93.70;;;;;;5365193;26;20281;-56
2024/04/09 10:35:25;;;;;;;2.30;0.60;;;15.70;93.60;;;;;;5348739;26;20233;-56
2024/04/09 10:37:54;;;;;;;0.83;0.30;;;15.90;93.50;;;;;;5362645;26;20237;-56
2024/04/09 10:40:21;;;;;;;5.28;0.63;;;16.00;93.20;;;;;;5367173;26;20375;-56
2024/04/09 10:42:50;;;;;;;1.67;0.40;;;16.00;93.30;;;;;;5368012;26;20244;-56
2024/04/09 10:45:15;;;;;;;4.20;2.28;;;15.90;93.50;;;;;;5364004;26;20266;-56
2024/04/09 10:47:46;;;;;;;4.20;1.40;;;16.00;93.40;;;;;;5362680;26;20237;-56
2024/04/09 10:50:15;;;;;;;1.63;0.97;;;15.90;93.40;;;;;;5364412;26;20279;-56
2024/04/09 10:52:44;;;;;;;4.67;2.43;;;15.90;93.40;;;;;;5357561;26;20685;-56
2024/04/09 10:55:11;;;;;;;4.83;0.93;;;15.80;93.30;;;;;;5365048;26;20233;-56
2024/04/09 10:57:39;;;;;;;3.17;1.00;;;15.50;93.60;;;;;;5368430;26;20240;-56
2024/04/09 11:00:10;;;;;;;4.93;1.67;;;15.20;93.90;;;;;;5365971;26;20240;-56
2024/04/09 11:02:39;;;;;;;2.70;0.70;;;15.20;94.10;;;;;;5362586;26;20248;-56
2024/04/09 11:05:05;;;;;;;1.23;0.60;;;15.50;93.60;;;;;;5364045;26;20272;-57
2024/04/09 11:07:38;;;;;;;2.27;0.63;;;16.00;93.10;;;;;;5368062;26;20240;-57
2024/04/09 11:10:06;;;;;;;4.07;0.60;;;16.50;92.40;;;;;;5366470;26;20236;-56
2024/04/09 11:12:36;;;;;;;2.80;0.60;;;16.70;91.60;;;;;;5362389;26;20229;-55
2024/04/09 11:15:03;;;;;;;2.95;0.77;;;16.70;91.10;;;;;;5362944;26;20578;-55
2024/04/09 11:17:32;;;;;;;2.27;0.63;;;16.40;91.20;;;;;;5367982;26;21029;-56
2024/04/09 11:20:09;;;;;;;2.33;0.60;;;16.30;91.70;;;;;;5367615;26;20240;-56
2024/04/09 11:22:45;;;;;;;1.37;0.53;;;16.10;92.00;;;;;;5350065;26;20232;-56
2024/04/09 11:25:12;;;;;;;0.57;0.40;;;15.90;91.90;;;;;;5376324;26;20327;-58
2024/04/09 11:27:41;;;;;;;2.63;1.05;;;15.80;92.00;;;;;;5361807;26;20734;-56
2024/04/09 11:30:08;;;;;;;5.38;0.90;;;15.70;92.30;;;;;;5363073;26;20288;-56
2024/04/09 11:32:36;;;;;;;2.58;0.68;;;15.60;92.80;;;;;;5367661;26;20232;-57
2024/04/09 11:35:02;;;;;;;2.13;1.63;;;15.60;92.80;;;;;;5367054;26;20240;-56
2024/04/09 11:37:31;;;;;;;2.80;1.03;;;15.70;92.80;;;;;;5368826;26;20232;-58
2024/04/09 11:40:01;;;;;;;2.25;1.00;;;15.70;92.90;;;;;;5367925;26;20236;-56
2024/04/09 11:42:29;;;;;;;2.77;0.83;;;15.70;92.30;;;;;;5348216;26;20241;-56
2024/04/09 11:44:59;;;;;;;2.80;0.70;;;15.70;92.00;;;;;;5360506;26;20276;-56
2024/04/09 11:47:28;;;;;;;1.30;0.50;;;15.60;92.20;;;;;;5347883;26;20340;-57
2024/04/09 11:49:54;;;;;;;3.53;0.73;;;15.60;91.80;;;;;;5361374;26;20287;-56
2024/04/09 11:52:22;;;;;;;4.32;0.85;;;15.60;91.60;;;;;;5361504;26;20241;-57
2024/04/09 11:54:48;;;;;;;3.30;0.88;;;15.60;91.40;;;;;;5361487;26;20233;-57
2024/04/09 11:57:19;;;;;;;1.92;0.80;;;15.50;91.20;;;;;;5364668;26;20590;-58
2024/04/09 11:59:47;;;;;;;2.90;0.75;;;15.40;91.50;;;;;;5366346;26;20251;-57
2024/04/09 12:02:15;;;;;;;0.63;0.30;;;15.30;91.70;;;;;;5366319;26;20822;-57
2024/04/09 12:04:41;;;;;;;0.93;0.50;;;15.10;92.00;;;;;;5366891;26;20280;-55
2024/04/09 12:07:10;;;;;;;1.45;0.77;;;15.00;91.90;;;;;;5364929;26;20581;-56
2024/04/09 12:09:36;;;;;;;1.97;0.83;;;14.80;91.80;;;;;;5360283;26;20279;-59
2024/04/09 12:12:08;;;;;;;1.47;0.53;;;14.80;92.10;;;;;;5361683;26;20229;-57
2024/04/09 12:14:37;;;;;;;3.10;0.50;;;14.80;92.10;;;;;;5367290;26;20272;-57
2024/04/09 12:17:06;;;;;;;1.53;0.50;;;14.80;91.80;;;;;;5366297;26;20725;-59
2024/04/09 12:19:32;;;;;;;1.37;0.40;;;14.60;91.80;;;;;;5359369;26;20233;-59
2024/04/09 12:22:00;;;;;;;1.10;0.40;;;14.60;92.10;;;;;;5359787;26;20263;-59
2024/04/09 12:24:27;;;;;;;3.20;0.60;;;14.60;92.40;;;;;;5346304;26;20272;-58
2024/04/09 12:26:56;;;;;;;1.23;0.47;;;14.60;92.40;;;;;;5360402;26;20245;-58
2024/04/09 12:29:21;;;;;;;2.23;0.80;;;14.60;92.50;;;;;;5364377;26;20244;-58
2024/04/09 12:31:52;;;;;;;1.90;0.60;;;14.50;92.40;;;;;;5366039;26;20278;-58
2024/04/09 12:34:19;;;;;;;0.85;0.47;;;14.40;92.70;;;;;;5362186;26;20398;-59
2024/04/09 12:36:48;;;;;;;2.20;1.20;;;14.30;92.90;;;;;;5360281;26;20631;-59
2024/04/09 12:39:14;;;;;;;2.10;0.83;;;14.30;93.00;;;;;;5362411;26;20244;-59
2024/04/09 12:41:42;;;;;;;3.17;1.60;;;14.30;93.00;;;;;;5365808;26;20589;-58
2024/04/09 12:44:08;;;;;;;2.00;0.80;;;14.40;93.10;;;;;;5364516;26;20717;-60
2024/04/09 12:46:36;;;;;;;2.90;0.70;;;14.50;93.40;;;;;;5359648;26;20312;-58